Time;durP1;ratioP1;P1;durP2;ratioP2;P2;SDS_P1;SDS_P2;PMS_P1;PMS_P2;Temp;Humidity;BMP_temperature;BMP_pressure;BME280_temperature;BME280_humidity;BME280_pressure;Samples;Min_cycle;Max_cycle;Signal;HPM_P1;HPM_P2
2023/09/09 00:01:30;;;;;;;0.00;0.00;;;21.20;81.80;;;;;;5006247;28;20042;-68
2023/09/09 00:03:56;;;;;;;0.00;0.00;;;21.10;81.80;;;;;;5011399;28;20469;-68
2023/09/09 00:06:22;;;;;;;0.00;0.00;;;21.10;81.90;;;;;;4963400;28;20109;-68
2023/09/09 00:08:47;;;;;;;0.00;0.00;;;21.10;82.10;;;;;;5006741;28;20414;-68
2023/09/09 00:11:13;;;;;;;0.00;0.00;;;21.10;82.10;;;;;;4976831;28;20042;-69
2023/09/09 00:13:39;;;;;;;0.00;0.00;;;21.10;82.10;;;;;;5002634;28;20132;-68
2023/09/09 00:16:05;;;;;;;0.00;0.00;;;21.10;82.10;;;;;;5013686;28;20580;-68
2023/09/09 00:18:31;;;;;;;0.00;0.00;;;21.10;82.10;;;;;;4976301;28;20129;-68
2023/09/09 00:20:56;;;;;;;0.00;0.00;;;21.00;82.10;;;;;;4970861;28;20153;-68
2023/09/09 00:23:22;;;;;;;0.00;0.00;;;21.00;82.30;;;;;;5007907;28;20039;-69
2023/09/09 00:25:48;;;;;;;0.00;0.00;;;21.10;82.30;;;;;;4992960;28;20089;-69
2023/09/09 00:28:14;;;;;;;0.00;0.00;;;21.10;82.30;;;;;;4996569;28;20511;-69
2023/09/09 00:30:40;;;;;;;0.00;0.00;;;21.00;82.30;;;;;;5006234;28;20049;-69
2023/09/09 00:33:09;;;;;;;0.00;0.00;;;21.00;82.40;;;;;;4997982;28;20109;-68
2023/09/09 00:35:38;;;;;;;0.00;0.00;;;21.00;82.40;;;;;;4979199;28;20565;-69
2023/09/09 00:38:05;;;;;;;0.00;0.00;;;21.00;82.30;;;;;;5000667;28;20065;-69
2023/09/09 00:40:31;;;;;;;0.00;0.00;;;20.90;82.40;;;;;;5000004;28;20543;-69
2023/09/09 00:42:56;;;;;;;0.00;0.00;;;20.90;82.40;;;;;;4997492;28;20148;-69
2023/09/09 00:45:22;;;;;;;0.00;0.00;;;20.90;82.40;;;;;;5007543;28;20088;-68
2023/09/09 00:47:48;;;;;;;0.00;0.00;;;20.90;82.40;;;;;;4993292;28;20058;-69
2023/09/09 00:50:14;;;;;;;0.00;0.00;;;20.80;82.40;;;;;;5008158;28;20050;-69
2023/09/09 00:52:41;;;;;;;0.00;0.00;;;20.80;82.30;;;;;;5006923;28;20087;-68
2023/09/09 00:55:08;;;;;;;0.00;0.00;;;20.80;82.30;;;;;;5006483;28;20038;-68
2023/09/09 00:57:34;;;;;;;0.00;0.00;;;20.80;82.30;;;;;;5002794;28;20497;-68
2023/09/09 01:00:03;;;;;;;0.00;0.00;;;20.80;82.30;;;;;;5009731;28;20046;-69
2023/09/09 01:02:29;;;;;;;0.00;0.00;;;20.80;82.40;;;;;;5003553;28;20046;-69
2023/09/09 01:04:59;;;;;;;0.00;0.00;;;20.80;82.50;;;;;;4991511;28;20078;-69
2023/09/09 01:07:26;;;;;;;0.00;0.00;;;20.70;82.50;;;;;;5002374;28;20045;-69
2023/09/09 01:09:52;;;;;;;0.00;0.00;;;20.70;82.60;;;;;;4992326;28;20903;-69
2023/09/09 01:12:18;;;;;;;0.00;0.00;;;20.70;82.80;;;;;;4988581;28;20047;-69
2023/09/09 01:14:44;;;;;;;0.00;0.00;;;20.70;83.00;;;;;;5010148;28;20427;-69
2023/09/09 01:17:10;;;;;;;0.00;0.00;;;20.70;82.90;;;;;;4999848;28;20042;-69
2023/09/09 01:19:36;;;;;;;0.00;0.00;;;20.70;83.00;;;;;;4981300;28;20046;-69
2023/09/09 01:22:11;;;;;;;0.00;0.00;;;20.60;83.00;;;;;;4999074;28;20053;-69
2023/09/09 01:24:38;;;;;;;0.00;0.00;;;20.60;83.00;;;;;;5007885;28;20046;-69
2023/09/09 01:27:04;;;;;;;0.00;0.00;;;20.60;83.00;;;;;;5009561;28;20691;-69
2023/09/09 01:29:30;;;;;;;0.00;0.00;;;20.60;83.00;;;;;;4999694;28;20049;-69
2023/09/09 01:31:55;;;;;;;0.13;0.13;;;20.50;83.10;;;;;;4998632;28;20049;-69
2023/09/09 01:34:21;;;;;;;0.00;0.00;;;20.50;83.10;;;;;;5001212;28;20105;-69
2023/09/09 01:36:47;;;;;;;0.00;0.00;;;20.50;83.10;;;;;;5005403;28;20041;-69
2023/09/09 01:39:13;;;;;;;0.00;0.00;;;20.50;83.20;;;;;;4983557;28;20583;-69
2023/09/09 01:41:38;;;;;;;0.00;0.00;;;20.50;83.20;;;;;;4998828;28;20080;-69
2023/09/09 01:44:04;;;;;;;0.00;0.00;;;20.50;83.20;;;;;;4997656;28;21165;-69
2023/09/09 01:46:30;;;;;;;0.00;0.00;;;20.50;83.20;;;;;;4992115;28;20058;-69
2023/09/09 01:48:57;;;;;;;0.00;0.00;;;20.50;83.30;;;;;;5000121;28;20513;-69
2023/09/09 01:51:23;;;;;;;0.00;0.00;;;20.50;83.30;;;;;;4993336;28;20057;-69
2023/09/09 01:53:48;;;;;;;0.00;0.00;;;20.40;83.30;;;;;;5000916;28;20045;-69
2023/09/09 01:56:14;;;;;;;0.00;0.00;;;20.40;83.40;;;;;;5008679;28;20046;-69
2023/09/09 01:58:39;;;;;;;0.00;0.00;;;20.40;83.40;;;;;;5000018;28;20037;-69
2023/09/09 02:01:05;;;;;;;0.00;0.00;;;20.40;83.30;;;;;;5006891;28;20133;-69
2023/09/09 02:03:31;;;;;;;0.00;0.00;;;20.40;83.30;;;;;;4990277;28;20039;-69
2023/09/09 02:05:56;;;;;;;0.00;0.00;;;20.40;83.30;;;;;;4979463;28;20567;-69
2023/09/09 02:08:22;;;;;;;0.00;0.00;;;20.40;83.30;;;;;;5001851;28;20056;-69
2023/09/09 02:10:50;;;;;;;0.00;0.00;;;20.40;83.40;;;;;;4990959;28;20046;-69
2023/09/09 02:13:15;;;;;;;0.00;0.00;;;20.40;83.40;;;;;;4997035;28;20580;-69
2023/09/09 02:15:41;;;;;;;0.10;0.10;;;20.40;83.30;;;;;;5000945;28;20120;-69
2023/09/09 02:18:07;;;;;;;0.00;0.00;;;20.30;83.30;;;;;;4996602;28;20522;-69
2023/09/09 02:20:33;;;;;;;0.00;0.00;;;20.40;83.40;;;;;;4963385;28;20133;-69
2023/09/09 02:22:58;;;;;;;0.00;0.00;;;20.30;83.30;;;;;;4997430;28;20129;-69
2023/09/09 02:25:24;;;;;;;0.00;0.00;;;20.30;83.50;;;;;;5004473;28;20483;-69
2023/09/09 02:27:50;;;;;;;0.00;0.00;;;20.30;83.60;;;;;;5007146;28;20045;-69
2023/09/09 02:30:15;;;;;;;0.00;0.00;;;20.20;83.70;;;;;;4990238;28;20038;-69
2023/09/09 02:32:43;;;;;;;0.00;0.00;;;20.20;83.50;;;;;;5000211;28;20085;-69
2023/09/09 02:35:10;;;;;;;0.08;0.08;;;20.10;83.40;;;;;;4999135;28;20056;-69
2023/09/09 02:37:36;;;;;;;0.00;0.00;;;20.10;83.50;;;;;;4970280;28;20056;-69
2023/09/09 02:40:01;;;;;;;0.00;0.00;;;20.10;83.50;;;;;;5005415;28;20041;-69
2023/09/09 02:42:27;;;;;;;0.00;0.00;;;20.10;83.50;;;;;;5001636;28;20073;-69
2023/09/09 02:44:52;;;;;;;0.00;0.00;;;20.00;83.50;;;;;;5002625;28;20042;-69
2023/09/09 02:47:19;;;;;;;0.00;0.00;;;20.00;83.40;;;;;;4993015;28;20456;-69
2023/09/09 02:49:45;;;;;;;0.00;0.00;;;20.00;83.50;;;;;;5003364;28;20042;-69
2023/09/09 02:52:11;;;;;;;0.00;0.00;;;19.90;83.60;;;;;;5003692;28;20411;-69
2023/09/09 02:54:37;;;;;;;0.00;0.00;;;19.90;83.70;;;;;;4999473;28;20046;-69
2023/09/09 02:57:04;;;;;;;0.00;0.00;;;19.90;83.60;;;;;;5004809;28;20054;-69
2023/09/09 02:59:31;;;;;;;0.00;0.00;;;19.90;83.50;;;;;;4974579;28;20412;-69
2023/09/09 03:01:56;;;;;;;0.00;0.00;;;19.80;83.40;;;;;;4979842;28;20392;-69
2023/09/09 03:04:22;;;;;;;0.00;0.00;;;19.80;83.40;;;;;;4991920;28;20096;-69
2023/09/09 03:06:47;;;;;;;0.00;0.00;;;19.80;83.50;;;;;;4999987;28;20065;-69
2023/09/09 03:09:14;;;;;;;0.00;0.00;;;19.80;83.50;;;;;;4998438;28;20110;-69
2023/09/09 03:11:39;;;;;;;0.00;0.00;;;19.70;83.40;;;;;;4993273;28;20846;-69
2023/09/09 03:14:05;;;;;;;0.00;0.00;;;19.70;83.40;;;;;;4986557;28;20060;-69
2023/09/09 03:16:30;;;;;;;0.00;0.00;;;19.60;83.40;;;;;;4971950;28;20564;-68
2023/09/09 03:18:56;;;;;;;0.00;0.00;;;19.60;83.40;;;;;;4994237;28;20030;-69
2023/09/09 03:21:21;;;;;;;0.00;0.00;;;19.60;83.50;;;;;;4998837;28;20088;-69
2023/09/09 03:23:47;;;;;;;0.00;0.00;;;19.60;83.50;;;;;;4989415;28;20414;-69
2023/09/09 03:26:18;;;;;;;0.00;0.00;;;19.60;83.40;;;;;;4989343;28;20046;-69
2023/09/09 03:28:45;;;;;;;0.00;0.00;;;19.60;83.70;;;;;;4994606;28;20868;-69
2023/09/09 03:31:11;;;;;;;0.00;0.00;;;19.50;83.90;;;;;;4996138;28;20145;-69
2023/09/09 03:33:37;;;;;;;0.00;0.00;;;19.50;83.80;;;;;;4994036;28;20506;-69
2023/09/09 03:36:03;;;;;;;0.00;0.00;;;19.50;84.10;;;;;;4989260;28;20730;-69
2023/09/09 03:38:29;;;;;;;0.00;0.00;;;19.40;84.20;;;;;;5004610;28;20044;-69
2023/09/09 03:40:54;;;;;;;0.03;0.03;;;19.40;84.30;;;;;;4993750;28;20039;-69
2023/09/09 03:43:20;;;;;;;0.00;0.00;;;19.30;84.10;;;;;;4996137;28;20041;-69
2023/09/09 03:45:45;;;;;;;0.00;0.00;;;19.40;84.10;;;;;;4999223;28;20054;-69
2023/09/09 03:48:11;;;;;;;0.00;0.00;;;19.30;84.10;;;;;;5003947;28;20554;-69
2023/09/09 03:50:37;;;;;;;0.00;0.00;;;19.40;84.10;;;;;;5001002;28;20100;-68
2023/09/09 03:53:02;;;;;;;0.00;0.00;;;19.30;84.10;;;;;;5001474;28;20149;-69
2023/09/09 03:55:28;;;;;;;0.00;0.00;;;19.30;84.10;;;;;;4991849;28;20041;-69
2023/09/09 03:57:54;;;;;;;0.00;0.00;;;19.30;84.00;;;;;;4992025;28;20093;-69
2023/09/09 04:00:19;;;;;;;0.00;0.00;;;19.30;84.00;;;;;;4996915;28;20046;-69
2023/09/09 04:02:45;;;;;;;0.00;0.00;;;19.30;84.00;;;;;;4973649;28;20039;-69
2023/09/09 04:05:11;;;;;;;0.00;0.00;;;19.30;83.90;;;;;;4993173;28;20561;-69
2023/09/09 04:07:36;;;;;;;0.00;0.00;;;19.20;83.80;;;;;;5001803;28;20042;-69
2023/09/09 04:10:05;;;;;;;0.00;0.00;;;19.20;83.80;;;;;;5006660;28;20116;-69
2023/09/09 04:12:31;;;;;;;0.00;0.00;;;19.20;84.10;;;;;;5003488;28;20441;-69
2023/09/09 04:14:57;;;;;;;0.00;0.00;;;19.20;84.00;;;;;;5006649;28;20046;-68
2023/09/09 04:17:23;;;;;;;0.00;0.00;;;19.20;84.00;;;;;;5005896;28;20100;-69
2023/09/09 04:19:48;;;;;;;0.00;0.00;;;19.20;83.90;;;;;;4989019;28;20047;-69
2023/09/09 04:22:14;;;;;;;0.20;0.20;;;19.20;83.90;;;;;;4991181;28;20049;-69
2023/09/09 04:24:39;;;;;;;0.00;0.00;;;19.10;83.70;;;;;;5000573;28;20034;-69
2023/09/09 04:27:05;;;;;;;0.00;0.00;;;19.00;83.70;;;;;;4988629;28;20511;-69
2023/09/09 04:29:31;;;;;;;0.00;0.00;;;19.00;83.70;;;;;;4995950;28;20154;-69
2023/09/09 04:31:58;;;;;;;0.00;0.00;;;19.00;83.60;;;;;;4980611;28;20054;-69
2023/09/09 04:34:24;;;;;;;0.00;0.00;;;19.00;83.60;;;;;;4999119;28;20121;-69
2023/09/09 04:36:50;;;;;;;0.00;0.00;;;18.90;83.80;;;;;;5001762;28;20046;-69
2023/09/09 04:39:15;;;;;;;0.10;0.10;;;18.90;83.90;;;;;;4997749;28;20073;-69
2023/09/09 04:41:42;;;;;;;0.00;0.00;;;18.80;83.80;;;;;;4992154;28;20498;-69
2023/09/09 04:44:08;;;;;;;0.00;0.00;;;18.80;83.90;;;;;;5011457;28;20529;-69
2023/09/09 04:46:34;;;;;;;0.00;0.00;;;18.80;84.00;;;;;;4994076;28;20549;-69
2023/09/09 04:49:00;;;;;;;0.00;0.00;;;18.80;83.90;;;;;;5012075;28;20053;-69
2023/09/09 04:51:25;;;;;;;0.00;0.00;;;18.80;83.90;;;;;;5005940;28;20543;-69
2023/09/09 04:53:51;;;;;;;0.00;0.00;;;18.70;84.00;;;;;;4975243;28;20042;-69
2023/09/09 04:56:17;;;;;;;0.00;0.00;;;18.70;83.90;;;;;;4999679;28;20042;-69
2023/09/09 04:58:43;;;;;;;0.00;0.00;;;18.80;84.00;;;;;;5011725;28;20060;-69
2023/09/09 05:01:09;;;;;;;0.00;0.00;;;18.70;84.00;;;;;;5011923;28;20112;-69
2023/09/09 05:03:37;;;;;;;0.00;0.00;;;18.80;84.10;;;;;;5011209;28;20046;-69
2023/09/09 05:06:06;;;;;;;0.00;0.00;;;18.70;84.10;;;;;;4993872;28;20475;-69
2023/09/09 05:08:35;;;;;;;0.00;0.00;;;18.80;84.20;;;;;;5011084;28;20543;-69
2023/09/09 05:11:00;;;;;;;0.00;0.00;;;18.80;84.20;;;;;;4998620;28;20495;-69
2023/09/09 05:13:26;;;;;;;0.00;0.00;;;18.80;84.30;;;;;;4992445;28;20042;-69
2023/09/09 05:15:51;;;;;;;0.00;0.00;;;18.70;84.20;;;;;;4993685;28;20069;-69
2023/09/09 05:18:17;;;;;;;0.00;0.00;;;18.70;84.20;;;;;;4993367;28;20053;-68
2023/09/09 05:20:43;;;;;;;0.00;0.00;;;18.70;84.20;;;;;;4994265;28;20048;-69
2023/09/09 05:23:09;;;;;;;0.00;0.00;;;18.70;84.20;;;;;;5011547;28;20046;-69
2023/09/09 05:25:35;;;;;;;0.00;0.00;;;18.60;84.20;;;;;;5011363;28;20046;-69
2023/09/09 05:28:00;;;;;;;0.00;0.00;;;18.70;84.30;;;;;;5009326;28;20410;-69
2023/09/09 05:30:29;;;;;;;0.15;0.13;;;18.70;84.50;;;;;;5011168;28;20045;-69
2023/09/09 05:32:55;;;;;;;0.00;0.00;;;18.70;84.60;;;;;;4999492;28;20134;-69
2023/09/09 05:35:32;;;;;;;0.00;0.00;;;18.70;84.80;;;;;;5011285;28;20049;-69
2023/09/09 05:37:58;;;;;;;0.00;0.00;;;18.70;85.00;;;;;;5005553;28;20038;-69
2023/09/09 05:40:23;;;;;;;0.00;0.00;;;18.80;84.90;;;;;;5010977;28;20042;-69
2023/09/09 05:42:49;;;;;;;0.10;0.10;;;18.70;85.30;;;;;;4993414;28;20038;-69
2023/09/09 05:45:15;;;;;;;0.00;0.00;;;18.70;85.70;;;;;;5009811;28;20052;-69
2023/09/09 05:47:45;;;;;;;0.00;0.00;;;18.60;85.50;;;;;;5010736;28;20052;-69
2023/09/09 05:50:16;;;;;;;0.00;0.00;;;18.60;85.30;;;;;;5010598;28;20407;-69
2023/09/09 05:52:45;;;;;;;0.00;0.00;;;18.70;85.20;;;;;;4993048;28;20119;-68
2023/09/09 05:55:11;;;;;;;0.00;0.00;;;18.70;85.10;;;;;;5011138;28;20388;-68
2023/09/09 05:57:36;;;;;;;0.00;0.00;;;18.70;85.20;;;;;;5009862;28;20064;-69
2023/09/09 06:00:04;;;;;;;0.00;0.00;;;18.70;85.00;;;;;;5010575;28;20054;-69
2023/09/09 06:02:33;;;;;;;0.00;0.00;;;18.80;85.00;;;;;;5010397;28;20045;-69
2023/09/09 06:04:58;;;;;;;0.00;0.00;;;18.80;85.20;;;;;;5010537;28;20038;-69
2023/09/09 06:07:27;;;;;;;0.00;0.00;;;18.80;85.20;;;;;;5009962;28;20410;-68
2023/09/09 06:09:52;;;;;;;0.00;0.00;;;18.90;85.30;;;;;;5010190;28;20643;-69
2023/09/09 06:12:18;;;;;;;0.00;0.00;;;19.00;85.50;;;;;;4976364;28;20053;-69
2023/09/09 06:14:43;;;;;;;0.00;0.00;;;19.00;85.40;;;;;;5010435;28;20139;-69
2023/09/09 06:17:09;;;;;;;0.00;0.00;;;19.00;85.50;;;;;;5009473;28;20061;-69
2023/09/09 06:19:37;;;;;;;0.00;0.00;;;19.00;85.40;;;;;;5010086;28;20049;-69
2023/09/09 06:22:03;;;;;;;0.00;0.00;;;19.10;85.50;;;;;;5009981;28;20061;-68
2023/09/09 06:24:29;;;;;;;0.00;0.00;;;19.10;85.40;;;;;;5008508;28;20046;-69
2023/09/09 06:26:54;;;;;;;1.15;0.38;;;19.20;85.30;;;;;;5009690;28;20096;-69
2023/09/09 06:29:21;;;;;;;0.00;0.00;;;19.30;85.30;;;;;;5008325;28;20065;-69
2023/09/09 06:31:46;;;;;;;0.00;0.00;;;19.30;85.20;;;;;;5002382;28;20049;-69
2023/09/09 06:34:12;;;;;;;0.00;0.00;;;19.40;85.20;;;;;;5007207;28;20060;-68
2023/09/09 06:36:38;;;;;;;0.30;0.30;;;19.50;85.20;;;;;;5000518;28;20529;-68
2023/09/09 06:39:03;;;;;;;0.00;0.00;;;19.50;85.20;;;;;;5007964;28;20057;-68
2023/09/09 06:41:29;;;;;;;0.00;0.00;;;19.60;85.10;;;;;;5008976;28;20034;-68
2023/09/09 06:43:54;;;;;;;0.00;0.00;;;19.60;85.10;;;;;;5007481;28;20172;-68
2023/09/09 06:46:20;;;;;;;0.00;0.00;;;19.70;85.00;;;;;;5004055;28;20042;-68
2023/09/09 06:48:45;;;;;;;0.00;0.00;;;19.80;85.00;;;;;;5001086;28;20047;-68
2023/09/09 06:51:11;;;;;;;0.00;0.00;;;19.80;85.10;;;;;;5006471;28;20054;-68
2023/09/09 06:53:37;;;;;;;0.00;0.00;;;19.80;85.20;;;;;;5007515;28;20041;-67
2023/09/09 06:56:02;;;;;;;0.00;0.00;;;19.80;85.30;;;;;;5008678;28;20052;-68
2023/09/09 06:58:28;;;;;;;0.00;0.00;;;19.80;85.30;;;;;;4974699;28;20042;-69
2023/09/09 07:00:54;;;;;;;0.00;0.00;;;19.90;85.30;;;;;;5005809;28;20137;-68
2023/09/09 07:03:20;;;;;;;0.45;0.38;;;19.90;85.30;;;;;;5009324;28;20053;-68
2023/09/09 07:05:46;;;;;;;0.00;0.00;;;20.00;85.40;;;;;;5001789;28;20060;-68
2023/09/09 07:08:11;;;;;;;0.00;0.00;;;20.00;85.40;;;;;;5002255;28;20038;-68
2023/09/09 07:10:37;;;;;;;0.00;0.00;;;20.10;85.40;;;;;;5009406;28;20513;-67
2023/09/09 07:13:03;;;;;;;0.00;0.00;;;20.10;85.50;;;;;;5003574;28;20050;-67
2023/09/09 07:15:29;;;;;;;0.00;0.00;;;20.20;85.90;;;;;;5006708;28;20586;-68
2023/09/09 07:17:55;;;;;;;0.00;0.00;;;20.30;85.90;;;;;;4990568;28;20051;-68
2023/09/09 07:20:21;;;;;;;0.00;0.00;;;20.30;86.00;;;;;;5006017;28;20072;-67
2023/09/09 07:22:47;;;;;;;0.10;0.10;;;20.40;87.00;;;;;;4991384;28;20042;-68
2023/09/09 07:25:13;;;;;;;0.00;0.00;;;20.40;87.40;;;;;;4970780;28;20045;-67
2023/09/09 07:27:39;;;;;;;0.10;0.10;;;20.40;87.60;;;;;;5007446;28;20073;-68
2023/09/09 07:30:10;;;;;;;0.30;0.30;;;20.40;88.30;;;;;;5007094;28;20422;-68
2023/09/09 07:32:43;;;;;;;0.40;0.40;;;20.50;88.30;;;;;;4999460;28;20050;-68
2023/09/09 07:35:12;;;;;;;1.00;0.55;;;20.50;88.90;;;;;;5002368;28;20053;-67
2023/09/09 07:37:37;;;;;;;0.30;0.30;;;20.60;89.40;;;;;;4995120;28;20188;-68
2023/09/09 07:40:04;;;;;;;0.65;0.65;;;20.60;89.20;;;;;;4988885;28;20117;-69
2023/09/09 07:42:32;;;;;;;0.93;0.90;;;20.50;89.10;;;;;;4983958;28;20055;-68
2023/09/09 07:44:58;;;;;;;0.50;0.50;;;20.50;88.50;;;;;;5003201;28;20046;-68
2023/09/09 07:47:23;;;;;;;0.00;0.00;;;20.60;88.40;;;;;;4990065;28;20061;-68
2023/09/09 07:49:49;;;;;;;0.00;0.00;;;20.70;87.90;;;;;;5007129;28;20054;-68
2023/09/09 07:52:15;;;;;;;0.30;0.30;;;20.80;87.70;;;;;;5008277;28;20478;-68
2023/09/09 07:54:40;;;;;;;0.47;0.47;;;20.90;87.30;;;;;;5007754;28;20097;-67
2023/09/09 07:57:06;;;;;;;0.25;0.20;;;20.90;87.00;;;;;;5007371;28;20058;-68
2023/09/09 07:59:32;;;;;;;0.40;0.40;;;21.00;86.50;;;;;;5007541;28;20046;-67
2023/09/09 08:01:57;;;;;;;0.40;0.30;;;21.00;86.20;;;;;;5005217;28;20042;-68
2023/09/09 08:04:23;;;;;;;0.20;0.20;;;21.10;86.20;;;;;;5001830;28;20562;-68
2023/09/09 08:06:55;;;;;;;0.13;0.13;;;21.20;85.90;;;;;;4989777;28;20042;-69
2023/09/09 08:09:20;;;;;;;0.50;0.50;;;21.30;85.70;;;;;;5008514;28;20797;-68
2023/09/09 08:11:46;;;;;;;0.43;0.43;;;21.40;86.10;;;;;;5003724;28;20046;-67
2023/09/09 08:14:13;;;;;;;0.60;0.60;;;21.50;85.50;;;;;;5007338;28;20050;-67
2023/09/09 08:16:39;;;;;;;1.85;0.75;;;21.50;85.50;;;;;;5010546;28;20053;-73
2023/09/09 08:19:04;;;;;;;1.15;0.65;;;21.60;85.40;;;;;;4985523;28;20510;-69
2023/09/09 08:21:37;;;;;;;5.60;0.55;;;21.70;85.00;;;;;;5004473;28;20045;-68
2023/09/09 08:24:08;;;;;;;0.17;0.17;;;21.80;84.70;;;;;;4984066;28;20495;-68
2023/09/09 08:26:37;;;;;;;1.95;0.55;;;22.00;84.50;;;;;;5010959;28;20042;-67
2023/09/09 08:29:04;;;;;;;0.10;0.10;;;22.00;84.20;;;;;;5010275;28;20500;-67
2023/09/09 08:31:35;;;;;;;0.05;0.05;;;22.10;84.00;;;;;;5012370;28;20104;-68
2023/09/09 08:34:00;;;;;;;0.40;0.40;;;22.10;83.50;;;;;;5012061;28;20045;-68
2023/09/09 08:36:26;;;;;;;0.00;0.00;;;22.20;83.70;;;;;;5012270;28;20038;-68
2023/09/09 08:38:56;;;;;;;0.10;0.10;;;22.30;83.10;;;;;;5010017;28;20065;-67
2023/09/09 08:41:34;;;;;;;0.20;0.20;;;22.30;82.60;;;;;;4992240;28;20041;-68
2023/09/09 08:44:32;;;;;;;0.40;0.40;;;22.40;82.20;;;;;;5011926;28;20062;-68
2023/09/09 08:46:59;;;;;;;0.10;0.10;;;22.40;79.20;;;;;;4994780;28;20080;-65
2023/09/09 08:49:28;;;;;;;0.10;0.10;;;22.50;79.30;;;;;;5010786;28;20069;-68
2023/09/09 08:52:23;;;;;;;0.90;0.80;;;22.60;79.40;;;;;;5012342;28;20053;-67
2023/09/09 08:54:49;;;;;;;0.25;0.25;;;22.80;79.40;;;;;;5003609;28;20156;-67
2023/09/09 08:57:16;;;;;;;0.10;0.10;;;22.80;77.00;;;;;;5012033;28;20056;-67
2023/09/09 08:59:50;;;;;;;0.30;0.30;;;22.90;77.80;;;;;;5011972;28;20038;-67
2023/09/09 09:02:16;;;;;;;0.05;0.05;;;23.00;78.30;;;;;;5012005;28;20042;-67
2023/09/09 09:04:46;;;;;;;0.45;0.45;;;23.00;78.50;;;;;;5005937;28;20579;-67
2023/09/09 09:07:12;;;;;;;0.05;0.05;;;23.10;78.20;;;;;;4991946;28;20407;-66
2023/09/09 09:09:41;;;;;;;0.50;0.40;;;23.10;78.00;;;;;;5001675;28;20061;-66
2023/09/09 09:12:13;;;;;;;1.15;0.55;;;23.20;76.90;;;;;;5011838;28;20081;-66
2023/09/09 09:14:46;;;;;;;0.25;0.25;;;23.30;77.00;;;;;;4994155;28;20061;-67
2023/09/09 09:17:12;;;;;;;0.35;0.35;;;23.40;77.10;;;;;;5011369;28;20112;-67
2023/09/09 09:19:41;;;;;;;2.80;1.55;;;23.40;76.60;;;;;;5011530;28;20387;-67
2023/09/09 09:22:13;;;;;;;0.45;0.45;;;23.50;76.40;;;;;;5012032;28;20037;-67
2023/09/09 09:24:45;;;;;;;0.05;0.00;;;23.60;76.50;;;;;;4994104;28;20057;-67
2023/09/09 09:27:15;;;;;;;0.45;0.30;;;23.60;76.30;;;;;;5011401;28;20042;-68
2023/09/09 09:29:50;;;;;;;0.35;0.35;;;23.60;75.90;;;;;;5011678;28;20080;-67
2023/09/09 09:32:25;;;;;;;0.00;0.00;;;23.70;75.70;;;;;;4994127;28;20049;-67
2023/09/09 09:34:51;;;;;;;0.17;0.17;;;23.80;75.70;;;;;;5011526;28;20041;-67
2023/09/09 09:37:20;;;;;;;0.22;0.22;;;23.90;75.10;;;;;;5011155;28;20050;-67
2023/09/09 09:39:52;;;;;;;0.28;0.28;;;23.90;76.10;;;;;;4989964;28;20044;-67
2023/09/09 09:42:20;;;;;;;0.65;0.43;;;24.00;74.40;;;;;;4990602;28;20054;-67
2023/09/09 09:44:46;;;;;;;4.70;1.40;;;23.90;74.40;;;;;;4991173;28;20145;-68
2023/09/09 09:47:12;;;;;;;0.52;0.43;;;24.00;73.70;;;;;;4994104;28;20810;-67
2023/09/09 09:49:44;;;;;;;0.13;0.13;;;24.00;72.50;;;;;;5002906;28;20056;-67
2023/09/09 09:52:24;;;;;;;0.00;0.00;;;24.10;72.40;;;;;;5009906;28;20049;-66
2023/09/09 09:54:56;;;;;;;0.00;0.00;;;24.10;72.90;;;;;;4988484;28;20057;-67
2023/09/09 09:57:23;;;;;;;0.00;0.00;;;24.20;73.50;;;;;;5008296;28;20458;-66
2023/09/09 09:59:52;;;;;;;0.00;0.00;;;24.20;73.40;;;;;;4993115;28;20057;-66
2023/09/09 10:02:19;;;;;;;3.85;0.73;;;24.20;70.80;;;;;;5008055;28;20096;-66
2023/09/09 10:04:49;;;;;;;0.35;0.35;;;24.30;70.30;;;;;;4993285;28;20676;-66
2023/09/09 10:07:23;;;;;;;0.03;0.03;;;24.40;70.00;;;;;;4990071;28;20121;-65
2023/09/09 10:09:56;;;;;;;0.05;0.05;;;24.40;69.80;;;;;;4991143;28;20188;-66
2023/09/09 10:12:35;;;;;;;0.52;0.22;;;24.50;68.70;;;;;;4992040;28;20054;-67
2023/09/09 10:15:05;;;;;;;0.20;0.20;;;24.50;71.00;;;;;;4991805;28;20053;-68
2023/09/09 10:17:35;;;;;;;0.30;0.30;;;24.60;70.20;;;;;;4992879;28;20495;-69
2023/09/09 10:20:01;;;;;;;0.00;0.00;;;24.70;70.00;;;;;;5005163;28;20038;-68
2023/09/09 10:22:34;;;;;;;0.55;0.30;;;24.60;70.30;;;;;;4980006;28;20141;-68
2023/09/09 10:25:12;;;;;;;0.00;0.00;;;24.70;71.00;;;;;;5004120;28;20050;-68
2023/09/09 10:27:40;;;;;;;0.95;0.80;;;24.70;71.20;;;;;;4997389;28;20058;-68
2023/09/09 10:30:08;;;;;;;0.17;0.17;;;24.80;69.90;;;;;;5008137;28;20104;-68
2023/09/09 10:32:35;;;;;;;0.10;0.10;;;24.80;71.00;;;;;;5003954;28;20133;-68
2023/09/09 10:35:03;;;;;;;0.22;0.22;;;24.90;70.70;;;;;;5009278;28;20050;-67
2023/09/09 10:37:33;;;;;;;0.00;0.00;;;24.90;71.90;;;;;;4999192;28;20089;-67
2023/09/09 10:40:04;;;;;;;0.20;0.20;;;24.90;70.10;;;;;;5007655;28;20041;-68
2023/09/09 10:42:30;;;;;;;0.00;0.00;;;25.00;70.40;;;;;;5004214;28;20046;-68
2023/09/09 10:45:16;;;;;;;0.00;0.00;;;25.10;69.40;;;;;;4990301;28;20108;-67
2023/09/09 10:47:57;;;;;;;0.10;0.10;;;25.10;69.20;;;;;;5004215;28;20511;-67
2023/09/09 10:50:23;;;;;;;;;;;25.10;69.60;;;;;;5005571;28;20057;-67
2023/09/09 10:53:22;;;;;;;0.00;0.00;;;25.10;69.20;;;;;;5004905;28;19921;-67
2023/09/09 10:55:50;;;;;;;0.10;0.10;;;25.10;69.40;;;;;;4999607;28;20054;-68
2023/09/09 10:58:18;;;;;;;0.10;0.10;;;25.10;69.80;;;;;;5006685;28;20050;-68
2023/09/09 11:00:48;;;;;;;0.00;0.00;;;25.10;68.50;;;;;;5008132;28;20038;-68
2023/09/09 11:03:18;;;;;;;0.00;0.00;;;25.20;69.50;;;;;;4990481;28;20061;-67
2023/09/09 11:06:05;;;;;;;0.30;0.30;;;25.20;68.70;;;;;;5000461;28;20045;-69
2023/09/09 11:08:46;;;;;;;0.20;0.20;;;25.30;67.90;;;;;;5003124;28;20093;-68
2023/09/09 11:11:26;;;;;;;0.13;0.13;;;25.30;67.80;;;;;;4991277;28;20092;-68
2023/09/09 11:13:57;;;;;;;0.10;0.10;;;25.40;68.00;;;;;;4990312;28;20173;-67
2023/09/09 11:16:53;;;;;;;0.10;0.10;;;25.40;67.70;;;;;;4990262;28;20133;-68
2023/09/09 11:19:23;;;;;;;0.13;0.13;;;25.40;66.40;;;;;;4988411;28;20064;-73
2023/09/09 11:21:51;;;;;;;0.00;0.00;;;25.50;66.80;;;;;;5008687;28;20128;-67
2023/09/09 11:24:22;;;;;;;0.00;0.00;;;25.50;64.40;;;;;;4991467;28;20046;-68
2023/09/09 11:26:56;;;;;;;0.10;0.10;;;25.50;66.10;;;;;;5009284;28;20041;-67
2023/09/09 11:29:21;;;;;;;0.03;0.03;;;25.60;65.70;;;;;;4991186;28;20046;-67
2023/09/09 11:31:50;;;;;;;0.00;0.00;;;25.60;64.60;;;;;;5008964;28;20108;-67
2023/09/09 11:34:16;;;;;;;1.45;1.08;;;25.60;65.60;;;;;;4998563;28;20042;-67
2023/09/09 11:36:43;;;;;;;0.52;0.52;;;25.60;66.20;;;;;;4993855;28;20606;-67
2023/09/09 11:39:09;;;;;;;0.20;0.20;;;25.60;65.50;;;;;;4982409;28;20519;-67
2023/09/09 11:41:38;;;;;;;0.15;0.15;;;25.70;65.10;;;;;;4970833;28;20069;-67
2023/09/09 11:44:09;;;;;;;0.00;0.00;;;25.80;65.80;;;;;;5004035;28;20140;-67
2023/09/09 11:46:42;;;;;;;0.20;0.20;;;25.80;65.20;;;;;;5007557;28;20042;-67
2023/09/09 11:49:08;;;;;;;0.30;0.30;;;25.80;63.30;;;;;;4989535;28;20138;-67
2023/09/09 11:51:35;;;;;;;0.00;0.00;;;25.80;64.80;;;;;;5000133;28;20463;-68
2023/09/09 11:54:02;;;;;;;0.15;0.15;;;25.80;63.20;;;;;;4975633;28;20045;-67
2023/09/09 11:56:33;;;;;;;0.10;0.10;;;25.90;64.80;;;;;;5006620;28;20152;-67
2023/09/09 11:59:06;;;;;;;0.03;0.03;;;25.90;64.70;;;;;;4978332;28;20128;-67
2023/09/09 12:01:42;;;;;;;0.00;0.00;;;25.90;65.70;;;;;;4955279;28;20053;-66
2023/09/09 12:04:15;;;;;;;0.08;0.08;;;26.00;65.00;;;;;;5006789;28;20111;-67
2023/09/09 12:06:50;;;;;;;0.10;0.10;;;26.00;63.70;;;;;;5006935;28;20042;-66
2023/09/09 12:09:16;;;;;;;0.00;0.00;;;26.00;63.00;;;;;;4988542;28;20076;-67
2023/09/09 12:11:46;;;;;;;0.00;0.00;;;26.00;64.10;;;;;;4988659;28;20054;-67
2023/09/09 12:14:13;;;;;;;0.00;0.00;;;26.10;63.70;;;;;;5000763;28;20050;-66
2023/09/09 12:16:45;;;;;;;0.15;0.15;;;26.10;64.20;;;;;;5002937;28;20038;-67
2023/09/09 12:19:16;;;;;;;0.10;0.10;;;26.20;62.70;;;;;;4994483;28;20046;-67
2023/09/09 12:21:46;;;;;;;0.00;0.00;;;26.20;62.80;;;;;;5006911;28;20073;-67
2023/09/09 12:27:09;;;;;;;0.10;0.10;;;26.30;63.50;;;;;;4977634;28;20080;-67
2023/09/09 12:29:50;;;;;;;0.28;0.28;;;26.40;61.70;;;;;;4974945;28;20046;-67
2023/09/09 12:32:24;;;;;;;0.10;0.10;;;26.50;61.50;;;;;;4988519;28;20537;-67
2023/09/09 12:34:50;;;;;;;0.10;0.10;;;26.50;61.90;;;;;;5000252;28;20038;-67
2023/09/09 12:37:16;;;;;;;0.00;0.00;;;26.50;61.90;;;;;;4999254;28;20052;-67
2023/09/09 12:39:41;;;;;;;0.10;0.10;;;26.50;61.30;;;;;;4989306;28;20201;-67
2023/09/09 12:42:08;;;;;;;0.00;0.00;;;26.50;61.30;;;;;;5006330;28;20491;-67
2023/09/09 12:44:48;;;;;;;0.05;0.05;;;26.50;59.30;;;;;;5006455;28;20054;-67
2023/09/09 12:47:20;;;;;;;0.15;0.15;;;26.50;61.20;;;;;;4993928;28;20077;-67
2023/09/09 12:49:52;;;;;;;0.08;0.08;;;26.60;60.00;;;;;;4975059;28;20132;-67
2023/09/09 12:52:20;;;;;;;0.32;0.32;;;26.70;59.60;;;;;;4974507;28;20035;-66
2023/09/09 12:54:49;;;;;;;0.15;0.15;;;26.60;57.00;;;;;;4992494;28;20048;-67